sensor_id;sensor_type;location;lat;lon;timestamp;P1;durP1;ratioP1;P2;durP2;ratioP2
1693;SDS011;844;47.058;15.472;2023-05-02T00:00:13;7.60;;;7.00;;
1693;SDS011;844;47.058;15.472;2023-05-02T00:02:43;8.80;;;8.10;;
1693;SDS011;844;47.058;15.472;2023-05-02T00:05:14;7.90;;;7.20;;
1693;SDS011;844;47.058;15.472;2023-05-02T00:07:45;10.13;;;7.87;;
1693;SDS011;844;47.058;15.472;2023-05-02T00:10:15;6.73;;;6.20;;
1693;SDS011;844;47.058;15.472;2023-05-02T00:12:45;8.93;;;8.13;;
1693;SDS011;844;47.058;15.472;2023-05-02T00:15:15;7.60;;;6.97;;
1693;SDS011;844;47.058;15.472;2023-05-02T00:17:45;7.83;;;6.93;;
1693;SDS011;844;47.058;15.472;2023-05-02T00:20:15;7.67;;;7.07;;
1693;SDS011;844;47.058;15.472;2023-05-02T00:22:48;7.87;;;7.10;;
1693;SDS011;844;47.058;15.472;2023-05-02T00:25:19;7.37;;;6.77;;
1693;SDS011;844;47.058;15.472;2023-05-02T00:27:51;7.33;;;6.73;;
1693;SDS011;844;47.058;15.472;2023-05-02T00:30:22;7.50;;;6.90;;
1693;SDS011;844;47.058;15.472;2023-05-02T00:32:54;7.90;;;7.30;;
1693;SDS011;844;47.058;15.472;2023-05-02T00:35:25;7.13;;;6.43;;
1693;SDS011;844;47.058;15.472;2023-05-02T00:37:58;7.80;;;7.17;;
1693;SDS011;844;47.058;15.472;2023-05-02T00:40:28;7.00;;;6.50;;
1693;SDS011;844;47.058;15.472;2023-05-02T00:42:59;7.40;;;6.90;;
1693;SDS011;844;47.058;15.472;2023-05-02T00:45:29;6.43;;;5.93;;
1693;SDS011;844;47.058;15.472;2023-05-02T00:47:59;11.17;;;6.57;;
1693;SDS011;844;47.058;15.472;2023-05-02T00:50:30;8.00;;;6.77;;
1693;SDS011;844;47.058;15.472;2023-05-02T00:53:03;7.70;;;7.00;;
1693;SDS011;844;47.058;15.472;2023-05-02T00:55:34;6.10;;;5.70;;
1693;SDS011;844;47.058;15.472;2023-05-02T00:58:09;6.63;;;6.13;;
1693;SDS011;844;47.058;15.472;2023-05-02T01:00:48;7.17;;;6.57;;
1693;SDS011;844;47.058;15.472;2023-05-02T01:03:30;7.20;;;6.70;;
1693;SDS011;844;47.058;15.472;2023-05-02T01:06:08;7.67;;;6.97;;
1693;SDS011;844;47.058;15.472;2023-05-02T01:08:49;6.83;;;6.27;;
1693;SDS011;844;47.058;15.472;2023-05-02T01:11:32;6.67;;;6.07;;
1693;SDS011;844;47.058;15.472;2023-05-02T01:14:07;6.97;;;6.43;;
1693;SDS011;844;47.058;15.472;2023-05-02T01:16:39;5.70;;;5.27;;
1693;SDS011;844;47.058;15.472;2023-05-02T01:19:15;7.17;;;6.60;;
1693;SDS011;844;47.058;15.472;2023-05-02T01:21:51;7.03;;;6.53;;
1693;SDS011;844;47.058;15.472;2023-05-02T01:24:27;7.60;;;7.00;;
1693;SDS011;844;47.058;15.472;2023-05-02T01:27:06;7.03;;;5.93;;
1693;SDS011;844;47.058;15.472;2023-05-02T01:29:43;6.30;;;5.70;;
1693;SDS011;844;47.058;15.472;2023-05-02T01:32:14;6.30;;;5.80;;
1693;SDS011;844;47.058;15.472;2023-05-02T01:34:46;6.33;;;5.83;;
1693;SDS011;844;47.058;15.472;2023-05-02T01:37:17;8.20;;;6.30;;
1693;SDS011;844;47.058;15.472;2023-05-02T01:39:48;7.70;;;7.07;;
1693;SDS011;844;47.058;15.472;2023-05-02T01:42:20;7.07;;;6.43;;
1693;SDS011;844;47.058;15.472;2023-05-02T01:44:54;5.90;;;5.40;;
1693;SDS011;844;47.058;15.472;2023-05-02T01:47:24;6.27;;;5.80;;
1693;SDS011;844;47.058;15.472;2023-05-02T01:49:56;6.17;;;5.53;;
1693;SDS011;844;47.058;15.472;2023-05-02T01:52:28;6.47;;;5.97;;
1693;SDS011;844;47.058;15.472;2023-05-02T01:54:59;6.40;;;5.63;;
1693;SDS011;844;47.058;15.472;2023-05-02T01:57:31;7.30;;;6.70;;
1693;SDS011;844;47.058;15.472;2023-05-02T02:00:03;6.70;;;6.10;;
1693;SDS011;844;47.058;15.472;2023-05-02T02:02:36;6.17;;;5.70;;
1693;SDS011;844;47.058;15.472;2023-05-02T02:05:07;7.10;;;6.53;;
1693;SDS011;844;47.058;15.472;2023-05-02T02:07:38;6.10;;;5.70;;
1693;SDS011;844;47.058;15.472;2023-05-02T02:10:09;7.00;;;6.40;;
1693;SDS011;844;47.058;15.472;2023-05-02T02:12:41;6.93;;;6.33;;
1693;SDS011;844;47.058;15.472;2023-05-02T02:15:18;6.40;;;5.80;;
1693;SDS011;844;47.058;15.472;2023-05-02T02:17:58;7.70;;;6.90;;
1693;SDS011;844;47.058;15.472;2023-05-02T02:20:30;6.47;;;5.97;;
1693;SDS011;844;47.058;15.472;2023-05-02T02:23:02;6.40;;;6.00;;
1693;SDS011;844;47.058;15.472;2023-05-02T02:25:35;7.77;;;7.07;;
1693;SDS011;844;47.058;15.472;2023-05-02T02:28:06;6.73;;;6.23;;
1693;SDS011;844;47.058;15.472;2023-05-02T02:30:39;6.10;;;5.60;;
1693;SDS011;844;47.058;15.472;2023-05-02T02:33:09;6.17;;;5.67;;
1693;SDS011;844;47.058;15.472;2023-05-02T02:35:41;10.27;;;6.73;;
1693;SDS011;844;47.058;15.472;2023-05-02T02:38:13;6.77;;;6.27;;
1693;SDS011;844;47.058;15.472;2023-05-02T02:40:53;7.07;;;6.47;;
1693;SDS011;844;47.058;15.472;2023-05-02T02:43:26;6.80;;;6.27;;
1693;SDS011;844;47.058;15.472;2023-05-02T02:46:06;6.93;;;6.43;;
1693;SDS011;844;47.058;15.472;2023-05-02T02:48:42;6.33;;;5.80;;
1693;SDS011;844;47.058;15.472;2023-05-02T02:51:24;6.17;;;5.67;;
1693;SDS011;844;47.058;15.472;2023-05-02T02:53:59;7.33;;;6.77;;
1693;SDS011;844;47.058;15.472;2023-05-02T02:56:54;6.27;;;5.77;;
1693;SDS011;844;47.058;15.472;2023-05-02T02:59:31;7.13;;;6.43;;
1693;SDS011;844;47.058;15.472;2023-05-02T03:02:07;7.57;;;6.93;;
1693;SDS011;844;47.058;15.472;2023-05-02T03:04:39;7.33;;;6.73;;
1693;SDS011;844;47.058;15.472;2023-05-02T03:07:10;7.07;;;6.57;;
1693;SDS011;844;47.058;15.472;2023-05-02T03:09:40;7.10;;;5.97;;
1693;SDS011;844;47.058;15.472;2023-05-02T03:12:11;7.40;;;6.47;;
1693;SDS011;844;47.058;15.472;2023-05-02T03:14:42;6.57;;;5.93;;
1693;SDS011;844;47.058;15.472;2023-05-02T03:17:14;6.80;;;6.27;;
1693;SDS011;844;47.058;15.472;2023-05-02T03:19:44;6.97;;;6.47;;
1693;SDS011;844;47.058;15.472;2023-05-02T03:22:14;6.57;;;5.97;;
1693;SDS011;844;47.058;15.472;2023-05-02T03:24:44;7.60;;;6.90;;
1693;SDS011;844;47.058;15.472;2023-05-02T03:27:15;7.23;;;6.73;;
1693;SDS011;844;47.058;15.472;2023-05-02T03:29:46;7.30;;;6.60;;
1693;SDS011;844;47.058;15.472;2023-05-02T03:32:17;6.77;;;6.07;;
1693;SDS011;844;47.058;15.472;2023-05-02T03:34:47;7.00;;;6.50;;
1693;SDS011;844;47.058;15.472;2023-05-02T03:37:17;7.00;;;6.50;;
1693;SDS011;844;47.058;15.472;2023-05-02T03:39:47;7.80;;;7.07;;
1693;SDS011;844;47.058;15.472;2023-05-02T03:42:17;7.67;;;6.90;;
1693;SDS011;844;47.058;15.472;2023-05-02T03:44:50;8.47;;;7.27;;
1693;SDS011;844;47.058;15.472;2023-05-02T03:47:23;7.63;;;7.03;;
1693;SDS011;844;47.058;15.472;2023-05-02T03:49:53;7.70;;;7.07;;
1693;SDS011;844;47.058;15.472;2023-05-02T03:52:24;6.93;;;6.43;;
1693;SDS011;844;47.058;15.472;2023-05-02T03:54:55;8.70;;;7.90;;
1693;SDS011;844;47.058;15.472;2023-05-02T03:57:27;8.23;;;7.53;;
1693;SDS011;844;47.058;15.472;2023-05-02T03:59:58;8.10;;;7.30;;
1693;SDS011;844;47.058;15.472;2023-05-02T04:02:31;7.13;;;6.63;;
1693;SDS011;844;47.058;15.472;2023-05-02T04:05:01;6.60;;;6.00;;
1693;SDS011;844;47.058;15.472;2023-05-02T04:07:33;7.47;;;6.97;;
1693;SDS011;844;47.058;15.472;2023-05-02T04:10:05;7.37;;;6.50;;
1693;SDS011;844;47.058;15.472;2023-05-02T04:12:43;8.00;;;7.27;;
1693;SDS011;844;47.058;15.472;2023-05-02T04:15:12;9.07;;;8.37;;
1693;SDS011;844;47.058;15.472;2023-05-02T04:17:45;8.60;;;7.90;;
1693;SDS011;844;47.058;15.472;2023-05-02T04:20:16;7.63;;;6.93;;
1693;SDS011;844;47.058;15.472;2023-05-02T04:22:47;8.00;;;7.33;;
1693;SDS011;844;47.058;15.472;2023-05-02T04:25:18;8.13;;;7.43;;
1693;SDS011;844;47.058;15.472;2023-05-02T04:27:48;7.93;;;7.23;;
1693;SDS011;844;47.058;15.472;2023-05-02T04:30:18;8.30;;;7.40;;
1693;SDS011;844;47.058;15.472;2023-05-02T04:32:51;8.40;;;7.70;;
1693;SDS011;844;47.058;15.472;2023-05-02T04:35:21;8.77;;;8.07;;
1693;SDS011;844;47.058;15.472;2023-05-02T04:37:51;8.47;;;7.77;;
1693;SDS011;844;47.058;15.472;2023-05-02T04:40:22;8.67;;;7.70;;
1693;SDS011;844;47.058;15.472;2023-05-02T04:42:56;9.63;;;7.83;;
1693;SDS011;844;47.058;15.472;2023-05-02T04:45:26;7.80;;;7.20;;
1693;SDS011;844;47.058;15.472;2023-05-02T04:47:58;8.77;;;7.97;;
1693;SDS011;844;47.058;15.472;2023-05-02T04:50:28;8.63;;;7.97;;
1693;SDS011;844;47.058;15.472;2023-05-02T04:52:59;9.80;;;8.90;;
1693;SDS011;844;47.058;15.472;2023-05-02T04:55:29;9.93;;;9.20;;
1693;SDS011;844;47.058;15.472;2023-05-02T04:57:59;8.80;;;8.00;;
1693;SDS011;844;47.058;15.472;2023-05-02T05:00:31;12.70;;;8.50;;
1693;SDS011;844;47.058;15.472;2023-05-02T05:03:04;8.73;;;7.80;;
1693;SDS011;844;47.058;15.472;2023-05-02T05:05:34;8.40;;;7.70;;
1693;SDS011;844;47.058;15.472;2023-05-02T05:08:05;11.53;;;8.57;;
1693;SDS011;844;47.058;15.472;2023-05-02T05:10:35;9.70;;;8.90;;
1693;SDS011;844;47.058;15.472;2023-05-02T05:13:08;8.60;;;7.80;;
1693;SDS011;844;47.058;15.472;2023-05-02T05:15:39;9.10;;;8.40;;
1693;SDS011;844;47.058;15.472;2023-05-02T05:18:10;12.53;;;9.70;;
1693;SDS011;844;47.058;15.472;2023-05-02T05:20:40;9.33;;;8.43;;
1693;SDS011;844;47.058;15.472;2023-05-02T05:23:09;9.17;;;8.27;;
1693;SDS011;844;47.058;15.472;2023-05-02T05:25:41;9.60;;;8.80;;
1693;SDS011;844;47.058;15.472;2023-05-02T05:28:12;8.83;;;8.10;;
1693;SDS011;844;47.058;15.472;2023-05-02T05:30:43;9.33;;;8.53;;
1693;SDS011;844;47.058;15.472;2023-05-02T05:33:14;8.53;;;7.83;;
1693;SDS011;844;47.058;15.472;2023-05-02T05:35:44;9.07;;;8.20;;
1693;SDS011;844;47.058;15.472;2023-05-02T05:38:14;9.50;;;8.80;;
1693;SDS011;844;47.058;15.472;2023-05-02T05:40:48;9.40;;;8.27;;
1693;SDS011;844;47.058;15.472;2023-05-02T05:43:18;8.90;;;8.10;;
1693;SDS011;844;47.058;15.472;2023-05-02T05:45:50;9.47;;;8.57;;
1693;SDS011;844;47.058;15.472;2023-05-02T05:48:22;8.37;;;7.60;;
1693;SDS011;844;47.058;15.472;2023-05-02T05:50:53;8.97;;;8.27;;
1693;SDS011;844;47.058;15.472;2023-05-02T05:53:23;9.13;;;8.33;;
1693;SDS011;844;47.058;15.472;2023-05-02T05:55:54;8.40;;;7.70;;
1693;SDS011;844;47.058;15.472;2023-05-02T05:58:25;8.33;;;7.63;;
1693;SDS011;844;47.058;15.472;2023-05-02T06:00:59;9.30;;;8.60;;
1693;SDS011;844;47.058;15.472;2023-05-02T06:03:31;9.20;;;8.40;;
1693;SDS011;844;47.058;15.472;2023-05-02T06:06:02;8.80;;;8.07;;
1693;SDS011;844;47.058;15.472;2023-05-02T06:08:33;8.97;;;8.17;;
1693;SDS011;844;47.058;15.472;2023-05-02T06:11:07;9.57;;;8.53;;
1693;SDS011;844;47.058;15.472;2023-05-02T06:13:39;8.80;;;8.10;;
1693;SDS011;844;47.058;15.472;2023-05-02T06:16:09;7.23;;;6.63;;
1693;SDS011;844;47.058;15.472;2023-05-02T06:18:41;8.73;;;8.03;;
1693;SDS011;844;47.058;15.472;2023-05-02T06:21:11;9.23;;;8.40;;
1693;SDS011;844;47.058;15.472;2023-05-02T06:23:41;11.07;;;10.10;;
1693;SDS011;844;47.058;15.472;2023-05-02T06:26:11;9.00;;;8.33;;
1693;SDS011;844;47.058;15.472;2023-05-02T06:28:42;8.87;;;8.07;;
1693;SDS011;844;47.058;15.472;2023-05-02T06:31:13;10.20;;;9.20;;
1693;SDS011;844;47.058;15.472;2023-05-02T06:33:45;12.60;;;10.90;;
1693;SDS011;844;47.058;15.472;2023-05-02T06:36:16;12.03;;;10.33;;
1693;SDS011;844;47.058;15.472;2023-05-02T06:38:48;12.10;;;10.87;;
1693;SDS011;844;47.058;15.472;2023-05-02T06:41:18;12.37;;;10.47;;
1693;SDS011;844;47.058;15.472;2023-05-02T06:43:50;10.57;;;9.57;;
1693;SDS011;844;47.058;15.472;2023-05-02T06:46:20;10.70;;;9.80;;
1693;SDS011;844;47.058;15.472;2023-05-02T06:48:52;11.90;;;10.83;;
1693;SDS011;844;47.058;15.472;2023-05-02T06:51:22;11.47;;;10.50;;
1693;SDS011;844;47.058;15.472;2023-05-02T06:53:54;10.67;;;9.77;;
1693;SDS011;844;47.058;15.472;2023-05-02T06:56:25;11.13;;;10.23;;
1693;SDS011;844;47.058;15.472;2023-05-02T06:58:56;11.53;;;10.37;;
1693;SDS011;844;47.058;15.472;2023-05-02T07:01:26;12.60;;;11.30;;
1693;SDS011;844;47.058;15.472;2023-05-02T07:04:01;12.30;;;11.20;;
1693;SDS011;844;47.058;15.472;2023-05-02T07:06:34;12.83;;;11.70;;
1693;SDS011;844;47.058;15.472;2023-05-02T07:09:04;12.80;;;11.43;;
1693;SDS011;844;47.058;15.472;2023-05-02T07:11:35;14.50;;;11.60;;
1693;SDS011;844;47.058;15.472;2023-05-02T07:14:06;13.33;;;12.00;;
1693;SDS011;844;47.058;15.472;2023-05-02T07:16:39;12.07;;;10.40;;
1693;SDS011;844;47.058;15.472;2023-05-02T07:19:12;12.83;;;11.57;;
1693;SDS011;844;47.058;15.472;2023-05-02T07:21:43;11.70;;;10.73;;
1693;SDS011;844;47.058;15.472;2023-05-02T07:24:15;10.90;;;9.90;;
1693;SDS011;844;47.058;15.472;2023-05-02T07:26:45;12.03;;;10.80;;
1693;SDS011;844;47.058;15.472;2023-05-02T07:29:17;12.67;;;11.40;;
1693;SDS011;844;47.058;15.472;2023-05-02T07:31:47;13.60;;;12.30;;
1693;SDS011;844;47.058;15.472;2023-05-02T07:34:21;11.97;;;10.90;;
1693;SDS011;844;47.058;15.472;2023-05-02T07:36:51;15.77;;;14.37;;
1693;SDS011;844;47.058;15.472;2023-05-02T07:39:23;10.60;;;9.70;;
1693;SDS011;844;47.058;15.472;2023-05-02T07:41:57;12.33;;;11.27;;
1693;SDS011;844;47.058;15.472;2023-05-02T07:44:30;12.07;;;10.80;;
1693;SDS011;844;47.058;15.472;2023-05-02T07:47:01;15.17;;;13.70;;
1693;SDS011;844;47.058;15.472;2023-05-02T07:49:33;13.40;;;12.27;;
1693;SDS011;844;47.058;15.472;2023-05-02T07:52:05;16.33;;;13.07;;
1693;SDS011;844;47.058;15.472;2023-05-02T07:54:36;13.20;;;10.83;;
1693;SDS011;844;47.058;15.472;2023-05-02T07:57:08;11.03;;;9.93;;
1693;SDS011;844;47.058;15.472;2023-05-02T07:59:38;10.33;;;9.43;;
1693;SDS011;844;47.058;15.472;2023-05-02T08:02:10;9.50;;;8.70;;
1693;SDS011;844;47.058;15.472;2023-05-02T08:04:46;11.83;;;10.73;;
1693;SDS011;844;47.058;15.472;2023-05-02T08:07:16;10.50;;;9.53;;
1693;SDS011;844;47.058;15.472;2023-05-02T08:09:48;12.30;;;10.93;;
1693;SDS011;844;47.058;15.472;2023-05-02T08:12:18;9.60;;;8.70;;
1693;SDS011;844;47.058;15.472;2023-05-02T08:14:50;9.90;;;9.13;;
1693;SDS011;844;47.058;15.472;2023-05-02T08:17:21;12.27;;;11.00;;
1693;SDS011;844;47.058;15.472;2023-05-02T08:19:56;9.70;;;8.77;;
1693;SDS011;844;47.058;15.472;2023-05-02T08:22:31;10.80;;;8.63;;
1693;SDS011;844;47.058;15.472;2023-05-02T08:25:03;7.60;;;6.93;;
1693;SDS011;844;47.058;15.472;2023-05-02T08:27:35;8.93;;;8.13;;
1693;SDS011;844;47.058;15.472;2023-05-02T08:30:07;9.83;;;8.17;;
1693;SDS011;844;47.058;15.472;2023-05-02T08:32:38;9.33;;;8.50;;
1693;SDS011;844;47.058;15.472;2023-05-02T08:35:12;10.67;;;9.67;;
1693;SDS011;844;47.058;15.472;2023-05-02T08:37:42;9.40;;;8.53;;
1693;SDS011;844;47.058;15.472;2023-05-02T08:40:14;9.83;;;7.60;;
1693;SDS011;844;47.058;15.472;2023-05-02T08:43:07;7.70;;;7.00;;
1693;SDS011;844;47.058;15.472;2023-05-02T08:45:42;8.13;;;7.50;;
1693;SDS011;844;47.058;15.472;2023-05-02T08:48:19;8.77;;;7.97;;
1693;SDS011;844;47.058;15.472;2023-05-02T08:50:52;6.90;;;6.30;;
1693;SDS011;844;47.058;15.472;2023-05-02T08:53:23;9.00;;;6.97;;
1693;SDS011;844;47.058;15.472;2023-05-02T08:55:55;5.33;;;4.93;;
1693;SDS011;844;47.058;15.472;2023-05-02T08:58:27;6.33;;;5.73;;
1693;SDS011;844;47.058;15.472;2023-05-02T09:00:59;8.37;;;6.60;;
1693;SDS011;844;47.058;15.472;2023-05-02T09:03:34;7.93;;;6.60;;
1693;SDS011;844;47.058;15.472;2023-05-02T09:06:09;6.53;;;5.93;;
1693;SDS011;844;47.058;15.472;2023-05-02T09:08:42;6.93;;;6.00;;
1693;SDS011;844;47.058;15.472;2023-05-02T09:11:16;6.60;;;6.10;;
1693;SDS011;844;47.058;15.472;2023-05-02T09:13:48;8.17;;;6.13;;
1693;SDS011;844;47.058;15.472;2023-05-02T09:16:20;5.97;;;5.47;;
1693;SDS011;844;47.058;15.472;2023-05-02T09:18:55;7.00;;;6.40;;
1693;SDS011;844;47.058;15.472;2023-05-02T09:21:36;6.37;;;5.73;;
1693;SDS011;844;47.058;15.472;2023-05-02T09:24:14;6.47;;;5.20;;
1693;SDS011;844;47.058;15.472;2023-05-02T09:26:55;4.90;;;4.30;;
1693;SDS011;844;47.058;15.472;2023-05-02T09:29:27;6.03;;;5.43;;
1693;SDS011;844;47.058;15.472;2023-05-02T09:32:02;9.83;;;5.43;;
1693;SDS011;844;47.058;15.472;2023-05-02T09:34:33;18.40;;;6.40;;
1693;SDS011;844;47.058;15.472;2023-05-02T09:37:07;5.30;;;4.80;;
1693;SDS011;844;47.058;15.472;2023-05-02T09:39:40;7.53;;;6.60;;
1693;SDS011;844;47.058;15.472;2023-05-02T09:42:10;5.77;;;5.37;;
1693;SDS011;844;47.058;15.472;2023-05-02T09:44:42;10.13;;;5.40;;
1693;SDS011;844;47.058;15.472;2023-05-02T09:47:22;6.67;;;6.07;;
1693;SDS011;844;47.058;15.472;2023-05-02T09:49:54;5.30;;;4.80;;
1693;SDS011;844;47.058;15.472;2023-05-02T09:52:26;4.97;;;4.40;;
1693;SDS011;844;47.058;15.472;2023-05-02T09:54:57;4.47;;;4.07;;
1693;SDS011;844;47.058;15.472;2023-05-02T09:57:38;5.00;;;4.50;;
1693;SDS011;844;47.058;15.472;2023-05-02T10:00:10;9.70;;;4.77;;
1693;SDS011;844;47.058;15.472;2023-05-02T10:02:47;5.03;;;4.60;;
1693;SDS011;844;47.058;15.472;2023-05-02T10:05:19;6.67;;;4.87;;
1693;SDS011;844;47.058;15.472;2023-05-02T10:07:54;4.20;;;3.80;;
1693;SDS011;844;47.058;15.472;2023-05-02T10:10:26;7.90;;;6.87;;
1693;SDS011;844;47.058;15.472;2023-05-02T10:12:57;5.67;;;5.10;;
1693;SDS011;844;47.058;15.472;2023-05-02T10:15:30;6.10;;;5.43;;
1693;SDS011;844;47.058;15.472;2023-05-02T10:18:02;3.93;;;3.63;;
1693;SDS011;844;47.058;15.472;2023-05-02T10:20:42;5.20;;;3.90;;
1693;SDS011;844;47.058;15.472;2023-05-02T10:23:19;3.97;;;3.67;;
1693;SDS011;844;47.058;15.472;2023-05-02T10:25:51;4.23;;;3.40;;
1693;SDS011;844;47.058;15.472;2023-05-02T10:28:24;3.60;;;3.40;;
1693;SDS011;844;47.058;15.472;2023-05-02T10:30:56;4.10;;;3.80;;
1693;SDS011;844;47.058;15.472;2023-05-02T10:33:27;4.00;;;3.70;;
1693;SDS011;844;47.058;15.472;2023-05-02T10:36:00;4.30;;;4.00;;
1693;SDS011;844;47.058;15.472;2023-05-02T10:38:33;3.67;;;3.37;;
1693;SDS011;844;47.058;15.472;2023-05-02T10:41:05;3.60;;;3.40;;
1693;SDS011;844;47.058;15.472;2023-05-02T10:43:38;3.83;;;3.57;;
1693;SDS011;844;47.058;15.472;2023-05-02T10:49:00;4.80;;;4.40;;
1693;SDS011;844;47.058;15.472;2023-05-02T10:51:31;5.00;;;3.40;;
1693;SDS011;844;47.058;15.472;2023-05-02T10:54:20;4.43;;;4.10;;
1693;SDS011;844;47.058;15.472;2023-05-02T10:57:00;3.70;;;3.50;;
1693;SDS011;844;47.058;15.472;2023-05-02T10:59:39;4.23;;;3.93;;
1693;SDS011;844;47.058;15.472;2023-05-02T11:05:18;6.53;;;5.00;;
1693;SDS011;844;47.058;15.472;2023-05-02T11:07:58;4.63;;;4.03;;
1693;SDS011;844;47.058;15.472;2023-05-02T11:14:09;4.40;;;4.10;;
1693;SDS011;844;47.058;15.472;2023-05-02T11:22:57;5.27;;;3.80;;
1693;SDS011;844;47.058;15.472;2023-05-02T11:25:34;12.60;;;4.40;;
1693;SDS011;844;47.058;15.472;2023-05-02T11:28:07;3.73;;;3.43;;
1693;SDS011;844;47.058;15.472;2023-05-02T11:34:24;3.60;;;3.30;;
1693;SDS011;844;47.058;15.472;2023-05-02T11:36:55;4.70;;;4.00;;
1693;SDS011;844;47.058;15.472;2023-05-02T11:39:26;4.43;;;3.57;;
1693;SDS011;844;47.058;15.472;2023-05-02T11:41:57;4.10;;;3.80;;
1693;SDS011;844;47.058;15.472;2023-05-02T11:44:28;5.60;;;3.70;;
1693;SDS011;844;47.058;15.472;2023-05-02T11:46:59;3.97;;;3.57;;
1693;SDS011;844;47.058;15.472;2023-05-02T11:49:31;3.90;;;3.60;;
1693;SDS011;844;47.058;15.472;2023-05-02T11:52:01;3.83;;;3.53;;
1693;SDS011;844;47.058;15.472;2023-05-02T11:54:33;3.77;;;3.37;;
1693;SDS011;844;47.058;15.472;2023-05-02T11:57:03;3.50;;;3.30;;
1693;SDS011;844;47.058;15.472;2023-05-02T11:59:47;6.13;;;2.97;;
1693;SDS011;844;47.058;15.472;2023-05-02T12:02:33;4.00;;;3.67;;
1693;SDS011;844;47.058;15.472;2023-05-02T12:05:05;4.70;;;3.40;;
1693;SDS011;844;47.058;15.472;2023-05-02T12:07:36;4.07;;;3.67;;
1693;SDS011;844;47.058;15.472;2023-05-02T12:10:07;5.63;;;4.00;;
1693;SDS011;844;47.058;15.472;2023-05-02T12:12:38;3.43;;;3.17;;
1693;SDS011;844;47.058;15.472;2023-05-02T12:15:10;4.47;;;4.07;;
1693;SDS011;844;47.058;15.472;2023-05-02T12:17:42;4.20;;;3.80;;
1693;SDS011;844;47.058;15.472;2023-05-02T12:20:15;3.70;;;3.40;;
1693;SDS011;844;47.058;15.472;2023-05-02T12:22:47;13.10;;;4.10;;
1693;SDS011;844;47.058;15.472;2023-05-02T12:25:17;5.60;;;4.50;;
1693;SDS011;844;47.058;15.472;2023-05-02T12:27:58;4.60;;;4.20;;
1693;SDS011;844;47.058;15.472;2023-05-02T12:30:29;5.13;;;3.90;;
1693;SDS011;844;47.058;15.472;2023-05-02T12:33:03;4.93;;;4.50;;
1693;SDS011;844;47.058;15.472;2023-05-02T12:35:35;7.13;;;5.40;;
1693;SDS011;844;47.058;15.472;2023-05-02T12:38:09;4.57;;;4.13;;
1693;SDS011;844;47.058;15.472;2023-05-02T12:40:48;4.10;;;3.80;;
1693;SDS011;844;47.058;15.472;2023-05-02T12:43:20;7.17;;;4.17;;
1693;SDS011;844;47.058;15.472;2023-05-02T12:48:39;3.90;;;3.50;;
1693;SDS011;844;47.058;15.472;2023-05-02T12:51:21;8.77;;;4.87;;
1693;SDS011;844;47.058;15.472;2023-05-02T12:53:55;3.67;;;3.37;;
1693;SDS011;844;47.058;15.472;2023-05-02T12:56:25;6.80;;;4.50;;
1693;SDS011;844;47.058;15.472;2023-05-02T12:58:59;6.33;;;3.87;;
1693;SDS011;844;47.058;15.472;2023-05-02T13:01:31;4.50;;;3.50;;
1693;SDS011;844;47.058;15.472;2023-05-02T13:04:03;5.63;;;5.00;;
1693;SDS011;844;47.058;15.472;2023-05-02T13:06:33;7.23;;;4.00;;
1693;SDS011;844;47.058;15.472;2023-05-02T13:09:04;14.20;;;5.23;;
1693;SDS011;844;47.058;15.472;2023-05-02T13:11:34;4.60;;;3.97;;
1693;SDS011;844;47.058;15.472;2023-05-02T13:14:06;5.60;;;3.93;;
1693;SDS011;844;47.058;15.472;2023-05-02T13:16:37;5.43;;;4.10;;
1693;SDS011;844;47.058;15.472;2023-05-02T13:19:09;3.43;;;2.70;;
1693;SDS011;844;47.058;15.472;2023-05-02T13:21:38;3.80;;;3.50;;
1693;SDS011;844;47.058;15.472;2023-05-02T13:24:09;4.83;;;3.63;;
1693;SDS011;844;47.058;15.472;2023-05-02T13:26:40;4.53;;;3.47;;
1693;SDS011;844;47.058;15.472;2023-05-02T13:29:11;4.63;;;4.10;;
1693;SDS011;844;47.058;15.472;2023-05-02T13:31:41;3.00;;;2.70;;
1693;SDS011;844;47.058;15.472;2023-05-02T13:34:13;3.30;;;3.00;;
1693;SDS011;844;47.058;15.472;2023-05-02T13:36:45;3.67;;;2.80;;
1693;SDS011;844;47.058;15.472;2023-05-02T13:39:17;5.03;;;2.73;;
1693;SDS011;844;47.058;15.472;2023-05-02T13:41:47;3.27;;;2.97;;
1693;SDS011;844;47.058;15.472;2023-05-02T13:44:18;2.47;;;2.27;;
1693;SDS011;844;47.058;15.472;2023-05-02T13:46:49;2.57;;;2.37;;
1693;SDS011;844;47.058;15.472;2023-05-02T13:49:23;2.67;;;2.03;;
1693;SDS011;844;47.058;15.472;2023-05-02T13:51:54;4.63;;;2.33;;
1693;SDS011;844;47.058;15.472;2023-05-02T13:54:26;3.40;;;2.60;;
1693;SDS011;844;47.058;15.472;2023-05-02T13:56:57;3.20;;;2.90;;
1693;SDS011;844;47.058;15.472;2023-05-02T13:59:29;2.30;;;2.10;;
1693;SDS011;844;47.058;15.472;2023-05-02T14:01:59;2.60;;;2.40;;
1693;SDS011;844;47.058;15.472;2023-05-02T14:04:32;4.33;;;2.10;;
1693;SDS011;844;47.058;15.472;2023-05-02T14:07:02;2.43;;;2.20;;
1693;SDS011;844;47.058;15.472;2023-05-02T14:09:32;2.07;;;1.80;;
1693;SDS011;844;47.058;15.472;2023-05-02T14:12:03;2.30;;;2.10;;
1693;SDS011;844;47.058;15.472;2023-05-02T14:14:33;2.20;;;2.03;;
1693;SDS011;844;47.058;15.472;2023-05-02T14:17:05;2.63;;;2.03;;
1693;SDS011;844;47.058;15.472;2023-05-02T14:19:38;1.80;;;1.70;;
1693;SDS011;844;47.058;15.472;2023-05-02T14:22:09;1.33;;;1.23;;
1693;SDS011;844;47.058;15.472;2023-05-02T14:24:40;2.27;;;2.07;;
1693;SDS011;844;47.058;15.472;2023-05-02T14:27:10;1.50;;;1.40;;
1693;SDS011;844;47.058;15.472;2023-05-02T14:29:46;1.67;;;1.57;;
1693;SDS011;844;47.058;15.472;2023-05-02T14:32:16;2.03;;;1.53;;
1693;SDS011;844;47.058;15.472;2023-05-02T14:34:50;2.20;;;2.10;;
1693;SDS011;844;47.058;15.472;2023-05-02T14:37:19;1.90;;;1.80;;
1693;SDS011;844;47.058;15.472;2023-05-02T14:39:50;2.07;;;1.90;;
1693;SDS011;844;47.058;15.472;2023-05-02T14:42:22;1.80;;;1.70;;
1693;SDS011;844;47.058;15.472;2023-05-02T14:44:53;2.23;;;1.57;;
1693;SDS011;844;47.058;15.472;2023-05-02T14:47:26;2.20;;;1.63;;
1693;SDS011;844;47.058;15.472;2023-05-02T14:50:00;2.43;;;2.23;;
1693;SDS011;844;47.058;15.472;2023-05-02T14:52:31;1.70;;;1.60;;
1693;SDS011;844;47.058;15.472;2023-05-02T14:55:02;1.47;;;1.37;;
1693;SDS011;844;47.058;15.472;2023-05-02T14:57:32;1.37;;;1.27;;
1693;SDS011;844;47.058;15.472;2023-05-02T15:00:04;1.77;;;1.30;;
1693;SDS011;844;47.058;15.472;2023-05-02T15:02:36;2.73;;;1.70;;
1693;SDS011;844;47.058;15.472;2023-05-02T15:05:10;3.20;;;1.97;;
1693;SDS011;844;47.058;15.472;2023-05-02T15:07:41;1.20;;;1.10;;
1693;SDS011;844;47.058;15.472;2023-05-02T15:10:15;1.90;;;1.47;;
1693;SDS011;844;47.058;15.472;2023-05-02T15:12:46;1.27;;;1.17;;
1693;SDS011;844;47.058;15.472;2023-05-02T15:15:19;2.30;;;1.80;;
1693;SDS011;844;47.058;15.472;2023-05-02T15:17:51;1.10;;;1.00;;
1693;SDS011;844;47.058;15.472;2023-05-02T15:20:23;1.20;;;1.10;;
1693;SDS011;844;47.058;15.472;2023-05-02T15:22:53;3.43;;;2.10;;
1693;SDS011;844;47.058;15.472;2023-05-02T15:25:25;2.10;;;2.00;;
1693;SDS011;844;47.058;15.472;2023-05-02T15:27:55;2.10;;;1.57;;
1693;SDS011;844;47.058;15.472;2023-05-02T15:30:26;2.40;;;1.37;;
1693;SDS011;844;47.058;15.472;2023-05-02T15:32:56;2.33;;;1.57;;
1693;SDS011;844;47.058;15.472;2023-05-02T15:35:30;1.40;;;1.10;;
1693;SDS011;844;47.058;15.472;2023-05-02T15:38:01;1.30;;;1.03;;
1693;SDS011;844;47.058;15.472;2023-05-02T15:40:31;1.90;;;1.10;;
1693;SDS011;844;47.058;15.472;2023-05-02T15:43:02;1.20;;;1.10;;
1693;SDS011;844;47.058;15.472;2023-05-02T15:45:33;1.27;;;0.80;;
1693;SDS011;844;47.058;15.472;2023-05-02T15:48:04;1.60;;;1.33;;
1693;SDS011;844;47.058;15.472;2023-05-02T15:50:35;9.90;;;2.60;;
1693;SDS011;844;47.058;15.472;2023-05-02T15:53:06;9.50;;;2.60;;
1693;SDS011;844;47.058;15.472;2023-05-02T15:55:37;7.90;;;2.43;;
1693;SDS011;844;47.058;15.472;2023-05-02T15:58:08;1.53;;;1.20;;
1693;SDS011;844;47.058;15.472;2023-05-02T16:00:39;9.70;;;1.93;;
1693;SDS011;844;47.058;15.472;2023-05-02T16:03:10;1.67;;;1.27;;
1693;SDS011;844;47.058;15.472;2023-05-02T16:05:44;5.53;;;2.90;;